Terminal Aerodrome Forecast
Issued by NWS Billings, MT

Home | Current Version | Previous Version | Graphics & Text | Print | Product List | Glossary On
Versions: 1 2 3 4 5 6 7 8 9 10 11 12 13 14 15 16 17 18 19 20
000
FTUS45 KBYZ 180539
TAFMLS
TAF
KMLS 180539Z 1806/1906 VRB05G15KT P6SM VCTS FEW025 BKN090CB
      TEMPO 1807/1809 BKN025 OVC080CB
     FM180900 05015KT P6SM VCSH OVC015
     FM182100 02014KT P6SM VCSH FEW015 OVC025=

USA.gov is the U.S. government's official web portal to all federal, state and local government web resources and services.